Time;durP1;ratioP1;P1;durP2;ratioP2;P2;SDS_P1;SDS_P2;PMS_P1;PMS_P2;Temp;Humidity;BMP_temperature;BMP_pressure;BME280_temperature;BME280_humidity;BME280_pressure;Samples;Min_cycle;Max_cycle;Signal;HPM_P1;HPM_P2
2021/03/10 00:02:17;;;;;;;51.65;24.48;;;7.30;98.00;;;;;;5022768;28;20077;-71
2021/03/10 00:05:00;;;;;;;57.15;24.95;;;7.20;97.50;;;;;;5054116;28;20060;-70
2021/03/10 00:07:26;;;;;;;50.85;24.58;;;7.30;97.20;;;;;;5025250;28;20073;-70
2021/03/10 00:09:54;;;;;;;54.13;24.67;;;7.20;97.40;;;;;;5023473;28;20041;-71
2021/03/10 00:12:20;;;;;;;48.53;24.38;;;7.30;97.80;;;;;;5018208;28;20081;-70
2021/03/10 00:14:46;;;;;;;47.58;23.92;;;7.30;96.50;;;;;;5024176;28;20109;-70
2021/03/10 00:17:13;;;;;;;55.83;24.95;;;7.40;96.20;;;;;;5019364;28;20497;-70
2021/03/10 00:19:42;;;;;;;51.38;24.45;;;7.30;97.00;;;;;;5022434;28;20050;-69
2021/03/10 00:22:09;;;;;;;51.13;23.42;;;7.40;97.00;;;;;;5015820;28;20037;-71
2021/03/10 00:24:36;;;;;;;47.17;23.17;;;7.40;96.70;;;;;;5025294;28;20100;-71
2021/03/10 00:27:03;;;;;;;48.95;22.75;;;7.40;97.20;;;;;;5030481;28;20048;-70
2021/03/10 00:29:30;;;;;;;47.15;24.10;;;7.30;96.60;;;;;;5022192;28;20046;-70
2021/03/10 00:31:56;;;;;;;45.40;22.80;;;7.20;97.40;;;;;;5018839;28;20073;-70
2021/03/10 00:34:23;;;;;;;46.53;22.17;;;7.20;97.60;;;;;;5022671;28;20069;-71
2021/03/10 00:36:49;;;;;;;47.85;23.13;;;7.30;97.70;;;;;;5022812;28;20111;-71
2021/03/10 00:39:15;;;;;;;45.75;22.67;;;7.30;97.00;;;;;;5015511;28;20434;-70
2021/03/10 00:41:42;;;;;;;48.75;22.25;;;7.50;96.80;;;;;;5022916;28;20103;-71
2021/03/10 00:44:08;;;;;;;46.75;22.90;;;7.50;96.50;;;;;;5020026;28;20041;-71
2021/03/10 00:46:34;;;;;;;44.67;23.13;;;7.50;96.70;;;;;;5019970;28;20050;-71
2021/03/10 00:49:01;;;;;;;50.30;24.02;;;7.50;96.80;;;;;;5019232;28;20049;-71
2021/03/10 00:51:27;;;;;;;52.28;24.77;;;7.50;96.30;;;;;;5018933;28;20046;-71
2021/03/10 00:53:54;;;;;;;51.67;24.20;;;7.30;97.30;;;;;;5051365;28;20054;-71
2021/03/10 00:56:20;;;;;;;51.58;23.60;;;7.30;98.50;;;;;;5021776;28;20053;-71
2021/03/10 00:58:49;;;;;;;53.13;23.98;;;7.20;99.60;;;;;;5021459;28;20439;-72
2021/03/10 01:01:15;;;;;;;56.22;24.55;;;7.20;99.90;;;;;;5019642;28;20158;-70
2021/03/10 01:03:42;;;;;;;50.95;23.80;;;7.30;99.90;;;;;;5022472;28;20135;-70
2021/03/10 01:06:08;;;;;;;56.17;24.25;;;7.20;99.90;;;;;;5021398;28;20046;-71
2021/03/10 01:08:35;;;;;;;52.97;25.75;;;7.20;99.90;;;;;;5026534;28;20077;-71
2021/03/10 01:11:01;;;;;;;52.50;23.70;;;7.10;99.90;;;;;;5018436;28;20440;-70
2021/03/10 01:13:27;;;;;;;50.33;23.52;;;6.90;99.90;;;;;;5020374;28;20512;-70
2021/03/10 01:15:53;;;;;;;56.13;25.48;;;7.10;99.90;;;;;;5021739;28;20136;-70
2021/03/10 01:18:20;;;;;;;52.00;25.52;;;7.00;99.90;;;;;;5015846;28;20049;-70
2021/03/10 01:20:46;;;;;;;49.05;23.83;;;6.90;99.90;;;;;;5021267;28;20049;-70
2021/03/10 01:23:12;;;;;;;48.50;23.38;;;6.90;99.90;;;;;;5020945;28;20088;-71
2021/03/10 01:25:39;;;;;;;49.28;24.25;;;7.00;99.90;;;;;;5014370;28;20436;-70
2021/03/10 01:28:05;;;;;;;54.03;24.63;;;7.00;99.90;;;;;;5025568;28;20537;-70
2021/03/10 01:30:32;;;;;;;48.97;23.25;;;7.10;99.90;;;;;;5025600;28;20454;-70
2021/03/10 01:32:59;;;;;;;47.55;23.45;;;7.20;99.90;;;;;;5019173;28;20049;-70
2021/03/10 01:35:25;;;;;;;47.47;23.85;;;7.30;99.90;;;;;;5025165;28;20057;-71
2021/03/10 01:37:51;;;;;;;50.65;22.85;;;7.40;99.90;;;;;;5014458;28;20092;-70
2021/03/10 01:40:18;;;;;;;47.05;22.20;;;7.40;98.70;;;;;;5021042;28;20136;-70
2021/03/10 01:42:45;;;;;;;49.17;22.38;;;7.40;99.70;;;;;;5024827;28;20136;-70
2021/03/10 01:45:12;;;;;;;44.35;21.80;;;7.50;97.80;;;;;;5025830;28;20439;-72
2021/03/10 01:47:41;;;;;;;51.42;22.92;;;7.50;96.80;;;;;;5026624;28;20057;-71
2021/03/10 01:50:08;;;;;;;51.15;23.23;;;7.60;96.70;;;;;;5025510;28;20196;-73
2021/03/10 01:52:35;;;;;;;49.58;23.02;;;7.50;95.60;;;;;;5013681;28;20456;-72
2021/03/10 01:55:02;;;;;;;46.33;24.13;;;7.40;97.40;;;;;;5024396;28;20052;-72
2021/03/10 01:57:28;;;;;;;50.35;25.17;;;7.30;98.40;;;;;;5014711;28;20046;-71
2021/03/10 01:59:56;;;;;;;50.97;24.38;;;7.40;99.80;;;;;;5028298;28;20176;-71
2021/03/10 02:02:23;;;;;;;52.63;23.60;;;7.40;98.60;;;;;;5022026;28;20080;-70
2021/03/10 02:04:52;;;;;;;51.47;23.90;;;7.30;99.20;;;;;;5023652;28;20704;-70
2021/03/10 02:07:29;;;;;;;50.75;24.52;;;7.30;99.90;;;;;;5019655;28;20066;-69
2021/03/10 02:10:01;;;;;;;53.70;25.35;;;7.30;99.90;;;;;;5021248;28;20045;-70
2021/03/10 02:12:54;;;;;;;63.25;27.38;;;7.30;99.90;;;;;;5022362;28;20131;-71
2021/03/10 02:15:29;;;;;;;57.13;26.35;;;7.30;99.90;;;;;;5018799;28;20119;-71
2021/03/10 02:18:02;;;;;;;54.00;25.63;;;7.20;99.20;;;;;;5024536;28;20049;-71
2021/03/10 02:20:34;;;;;;;64.03;27.75;;;7.10;99.30;;;;;;5016165;28;20053;-70
2021/03/10 02:23:10;;;;;;;61.15;26.85;;;7.00;99.50;;;;;;5019008;28;20073;-70
2021/03/10 02:25:46;;;;;;;57.22;25.42;;;7.10;99.90;;;;;;5023398;28;20132;-71
2021/03/10 02:28:12;;;;;;;59.15;25.80;;;7.10;98.50;;;;;;5015746;28;20068;-69
2021/03/10 02:30:50;;;;;;;50.80;23.98;;;7.10;97.60;;;;;;5020959;28;20100;-71
2021/03/10 02:33:22;;;;;;;48.03;23.92;;;7.10;97.20;;;;;;5028203;28;20076;-70
2021/03/10 02:35:56;;;;;;;53.10;22.92;;;7.20;97.70;;;;;;5015938;28;20111;-71
2021/03/10 02:38:24;;;;;;;52.72;23.67;;;7.30;97.90;;;;;;5023223;28;20077;-71
2021/03/10 02:40:52;;;;;;;50.28;23.35;;;7.10;96.20;;;;;;5020835;28;20095;-71
2021/03/10 02:43:20;;;;;;;48.22;22.67;;;7.10;95.80;;;;;;5015861;28;20164;-70
2021/03/10 02:45:46;;;;;;;46.00;22.42;;;7.20;96.20;;;;;;5020723;28;20050;-70
2021/03/10 02:48:14;;;;;;;47.83;22.98;;;7.40;95.50;;;;;;5020510;28;20131;-71
2021/03/10 02:50:41;;;;;;;47.60;22.65;;;7.20;95.30;;;;;;5016655;28;20045;-70
2021/03/10 02:53:08;;;;;;;50.08;23.40;;;7.20;95.70;;;;;;5028386;28;20042;-70
2021/03/10 02:55:39;;;;;;;49.60;23.50;;;7.20;96.90;;;;;;5021167;28;20624;-72
2021/03/10 02:58:10;;;;;;;49.75;24.23;;;7.30;99.10;;;;;;5027012;28;20050;-71
2021/03/10 03:00:37;;;;;;;51.45;23.77;;;7.40;99.70;;;;;;5024446;28;20104;-71
2021/03/10 03:03:04;;;;;;;49.30;24.67;;;7.40;99.50;;;;;;5028020;28;20060;-70
2021/03/10 03:05:32;;;;;;;53.30;24.27;;;7.30;99.30;;;;;;5031247;28;20042;-71
2021/03/10 03:08:01;;;;;;;51.85;24.60;;;7.30;99.90;;;;;;5021755;28;20553;-71
2021/03/10 03:10:32;;;;;;;55.22;24.38;;;7.20;99.90;;;;;;5021141;28;20446;-71
2021/03/10 03:13:01;;;;;;;50.85;24.60;;;7.00;99.90;;;;;;5026900;28;20050;-71
2021/03/10 03:15:28;;;;;;;53.92;25.60;;;7.10;99.90;;;;;;5019315;28;20077;-71
2021/03/10 03:17:56;;;;;;;50.33;23.90;;;7.10;99.90;;;;;;5031629;28;20583;-71
2021/03/10 03:20:25;;;;;;;53.65;25.73;;;7.10;99.90;;;;;;5028819;28;20049;-71
2021/03/10 03:22:58;;;;;;;51.72;23.05;;;7.20;99.90;;;;;;5029560;28;20484;-72
2021/03/10 03:25:27;;;;;;;48.25;23.27;;;7.40;99.90;;;;;;5015443;28;20077;-71
2021/03/10 03:28:01;;;;;;;43.33;21.63;;;7.40;99.90;;;;;;5026662;28;20100;-72
2021/03/10 03:30:31;;;;;;;51.20;23.80;;;7.20;99.90;;;;;;5018915;28;20485;-71
2021/03/10 03:33:01;;;;;;;53.15;24.30;;;7.30;99.90;;;;;;5032422;28;20052;-71
2021/03/10 03:35:28;;;;;;;49.40;23.55;;;7.10;99.90;;;;;;5024893;28;20069;-71
2021/03/10 03:37:55;;;;;;;49.35;23.73;;;7.20;99.90;;;;;;5021390;28;20132;-73
2021/03/10 03:40:23;;;;;;;56.28;23.02;;;7.10;99.90;;;;;;5026157;28;20107;-70
2021/03/10 03:42:51;;;;;;;49.88;23.83;;;7.20;99.90;;;;;;5027004;28;20500;-71
2021/03/10 03:45:21;;;;;;;52.50;24.08;;;7.20;99.90;;;;;;5018148;28;20438;-71
2021/03/10 03:47:55;;;;;;;50.85;23.67;;;7.40;99.90;;;;;;5028749;28;20049;-72
2021/03/10 03:51:06;;;;;;;50.92;24.80;;;7.40;99.90;;;;;;5024337;28;20053;-71
2021/03/10 03:53:32;;;;;;;50.83;23.63;;;7.30;99.90;;;;;;5015555;28;20125;-71
2021/03/10 03:55:58;;;;;;;50.35;23.88;;;7.30;99.90;;;;;;5023913;28;20095;-71
2021/03/10 03:58:25;;;;;;;50.42;23.05;;;7.30;99.90;;;;;;5022329;28;20081;-70
2021/03/10 04:00:51;;;;;;;54.92;24.83;;;7.30;99.90;;;;;;5034265;28;20085;-70
2021/03/10 04:03:17;;;;;;;50.90;23.88;;;7.20;99.90;;;;;;5026620;28;20053;-71
2021/03/10 04:05:44;;;;;;;52.65;23.77;;;7.00;99.90;;;;;;5020834;28;20373;-72
2021/03/10 04:08:10;;;;;;;55.55;23.90;;;6.90;99.90;;;;;;5025179;28;20056;-70
2021/03/10 04:10:39;;;;;;;49.30;23.63;;;6.80;99.90;;;;;;5022426;28;20053;-71
2021/03/10 04:13:07;;;;;;;52.13;23.45;;;6.80;99.90;;;;;;5028597;28;20057;-72
2021/03/10 04:15:34;;;;;;;52.63;24.00;;;7.10;99.90;;;;;;5026972;28;20053;-72
2021/03/10 04:18:02;;;;;;;59.78;25.67;;;6.80;99.90;;;;;;5024995;28;20359;-72
2021/03/10 04:20:29;;;;;;;55.72;23.58;;;6.80;99.90;;;;;;5047796;28;20037;-71
2021/03/10 04:22:55;;;;;;;58.70;24.88;;;6.80;99.90;;;;;;5029718;28;20460;-71
2021/03/10 04:25:22;;;;;;;51.97;23.52;;;6.80;99.90;;;;;;5025813;28;20049;-72
2021/03/10 04:27:48;;;;;;;56.50;24.38;;;6.70;99.90;;;;;;5029999;28;20042;-70
2021/03/10 04:30:15;;;;;;;56.05;24.20;;;6.80;99.90;;;;;;5023723;28;20053;-71
2021/03/10 04:32:42;;;;;;;58.55;25.15;;;6.70;99.90;;;;;;5025454;28;20453;-71
2021/03/10 04:35:12;;;;;;;;;;;6.70;99.90;;;;;;5031076;28;20068;-70
2021/03/10 04:37:40;;;;;;;53.80;23.13;;;7.00;99.90;;;;;;5026977;28;20565;-72
2021/03/10 04:40:08;;;;;;;51.67;24.02;;;6.90;99.90;;;;;;5025749;28;20045;-71
2021/03/10 04:42:35;;;;;;;50.38;23.73;;;6.70;99.90;;;;;;5028669;28;20481;-71
2021/03/10 04:45:02;;;;;;;58.63;24.27;;;6.60;99.90;;;;;;5022835;28;20497;-70
2021/03/10 04:47:29;;;;;;;51.33;23.17;;;6.60;99.90;;;;;;5017659;28;20093;-71
2021/03/10 04:49:55;;;;;;;54.38;24.33;;;6.60;99.90;;;;;;5025586;28;20374;-70
2021/03/10 04:52:22;;;;;;;54.30;25.15;;;6.70;99.90;;;;;;5021219;28;20050;-70
2021/03/10 04:54:48;;;;;;;55.35;24.00;;;6.70;99.90;;;;;;5035822;28;20105;-70
2021/03/10 04:57:15;;;;;;;50.45;22.85;;;6.70;99.90;;;;;;5025883;28;20535;-71
2021/03/10 04:59:41;;;;;;;51.40;23.73;;;6.60;99.90;;;;;;5037121;28;20125;-70
2021/03/10 05:02:07;;;;;;;54.85;24.65;;;6.70;99.90;;;;;;5023706;28;20539;-71
2021/03/10 05:04:35;;;;;;;48.10;23.45;;;6.60;99.90;;;;;;5022270;28;20049;-71
2021/03/10 05:07:02;;;;;;;51.00;23.25;;;6.80;99.90;;;;;;5023899;28;20099;-70
2021/03/10 05:09:29;;;;;;;48.47;23.27;;;7.00;99.90;;;;;;5023781;28;20107;-71
2021/03/10 05:11:55;;;;;;;50.85;23.80;;;7.00;99.90;;;;;;5027353;28;20080;-74
2021/03/10 05:14:21;;;;;;;56.15;24.73;;;7.00;99.90;;;;;;5021266;28;20054;-71
2021/03/10 05:16:47;;;;;;;54.63;24.15;;;6.90;99.90;;;;;;5022611;28;20107;-72
2021/03/10 05:19:14;;;;;;;51.40;24.20;;;6.90;99.90;;;;;;5025184;28;20504;-71
2021/03/10 05:21:40;;;;;;;52.78;23.75;;;6.90;99.90;;;;;;5022581;28;20132;-71
2021/03/10 05:24:07;;;;;;;56.08;25.08;;;6.90;99.90;;;;;;5026288;28;20050;-71
2021/03/10 05:26:37;;;;;;;53.78;24.35;;;6.80;99.50;;;;;;5016563;28;20041;-71
2021/03/10 05:29:03;;;;;;;50.30;24.17;;;6.80;99.60;;;;;;5026020;28;20049;-72
2021/03/10 05:31:30;;;;;;;53.10;24.55;;;6.90;99.40;;;;;;5024606;28;20108;-71
2021/03/10 05:33:56;;;;;;;59.67;24.73;;;7.10;99.50;;;;;;5028245;28;20051;-72
2021/03/10 05:36:23;;;;;;;58.60;26.85;;;7.20;99.20;;;;;;5022250;28;20085;-71
2021/03/10 05:39:09;;;;;;;60.83;26.52;;;7.00;98.90;;;;;;5025727;28;20095;-72
2021/03/10 05:41:36;;;;;;;58.47;26.13;;;6.90;99.10;;;;;;5023400;28;20048;-72
2021/03/10 05:44:03;;;;;;;56.33;26.45;;;6.80;98.60;;;;;;5054881;28;20076;-71
2021/03/10 05:46:30;;;;;;;59.80;27.58;;;6.80;99.50;;;;;;5025041;28;20041;-72
2021/03/10 05:48:56;;;;;;;53.72;25.08;;;6.90;99.30;;;;;;5020345;28;20096;-73
2021/03/10 05:51:23;;;;;;;59.65;26.60;;;7.00;98.60;;;;;;5017682;28;20138;-71
2021/03/10 05:53:51;;;;;;;54.80;26.35;;;7.00;98.30;;;;;;5028605;28;20049;-71
2021/03/10 05:56:17;;;;;;;61.35;25.50;;;6.80;98.30;;;;;;5022391;28;20085;-71
2021/03/10 05:58:54;;;;;;;55.10;26.35;;;6.90;99.30;;;;;;5033084;28;20069;-72
2021/03/10 06:01:20;;;;;;;54.75;24.85;;;7.10;98.60;;;;;;5025202;28;20123;-70
2021/03/10 06:04:00;;;;;;;54.92;25.92;;;7.20;99.80;;;;;;5020491;28;20038;-72
2021/03/10 06:06:38;;;;;;;56.58;25.15;;;7.10;98.10;;;;;;5026437;28;20096;-73
2021/03/10 06:09:21;;;;;;;53.72;26.30;;;6.90;99.00;;;;;;5022179;28;20092;-72
2021/03/10 06:12:04;;;;;;;56.30;25.85;;;6.90;99.00;;;;;;5025422;28;20061;-71
2021/03/10 06:14:31;;;;;;;53.35;24.67;;;7.00;98.40;;;;;;5019068;28;20077;-71
2021/03/10 06:17:06;;;;;;;52.97;25.73;;;7.20;98.00;;;;;;5014610;28;20081;-72
2021/03/10 06:19:46;;;;;;;56.83;24.88;;;7.10;98.20;;;;;;5018403;28;20049;-71
2021/03/10 06:22:14;;;;;;;48.15;23.15;;;7.00;98.30;;;;;;5019481;28;20132;-70
2021/03/10 06:24:41;;;;;;;50.17;23.00;;;7.10;97.40;;;;;;5017421;28;20127;-71
2021/03/10 06:27:08;;;;;;;48.50;22.77;;;7.10;97.00;;;;;;5024434;28;20540;-72
2021/03/10 06:29:35;;;;;;;50.60;23.00;;;7.00;96.50;;;;;;5028103;28;20409;-71
2021/03/10 06:32:07;;;;;;;48.75;23.00;;;6.80;96.60;;;;;;5031845;28;20181;-71
2021/03/10 06:34:43;;;;;;;51.30;24.15;;;6.90;97.10;;;;;;5029381;28;20057;-71
2021/03/10 06:37:28;;;;;;;57.35;22.92;;;7.00;96.80;;;;;;5026566;28;20099;-72
2021/03/10 06:40:12;;;;;;;49.15;23.33;;;7.00;97.00;;;;;;5030589;28;20049;-72
2021/03/10 06:42:39;;;;;;;;;;;7.00;96.90;;;;;;5027224;28;20042;-71
2021/03/10 06:45:07;;;;;;;50.05;21.58;;;6.90;96.80;;;;;;5016895;28;19976;-73
2021/03/10 06:47:40;;;;;;;61.05;25.38;;;7.00;97.20;;;;;;5024846;28;20054;-72
2021/03/10 06:50:10;;;;;;;48.47;22.65;;;7.00;97.30;;;;;;5022613;28;20180;-71
2021/03/10 06:52:41;;;;;;;52.15;23.42;;;7.20;97.30;;;;;;5024078;28;20050;-71
2021/03/10 06:55:07;;;;;;;54.42;24.63;;;7.10;96.70;;;;;;5019909;28;20050;-72
2021/03/10 06:57:44;;;;;;;54.58;24.13;;;7.00;96.10;;;;;;5025235;28;20061;-72
2021/03/10 07:00:23;;;;;;;52.15;24.52;;;7.00;96.20;;;;;;5029849;28;20076;-73
2021/03/10 07:02:50;;;;;;;50.30;23.80;;;7.10;95.80;;;;;;5023202;28;20054;-73
2021/03/10 07:05:17;;;;;;;50.65;23.40;;;7.10;96.00;;;;;;5025495;28;20124;-73
2021/03/10 07:07:46;;;;;;;52.40;23.80;;;7.20;95.60;;;;;;5031154;28;20056;-73
2021/03/10 07:10:19;;;;;;;48.70;23.42;;;7.40;96.20;;;;;;5022518;28;20053;-73
2021/03/10 07:12:46;;;;;;;49.03;22.23;;;7.20;95.00;;;;;;5028297;28;20053;-73
2021/03/10 07:15:13;;;;;;;53.80;25.08;;;7.20;95.50;;;;;;5027985;28;20155;-73
2021/03/10 07:17:45;;;;;;;51.13;23.50;;;7.30;95.20;;;;;;5024652;28;20064;-74
2021/03/10 07:20:12;;;;;;;52.25;23.33;;;7.40;95.00;;;;;;5015006;28;20096;-73
2021/03/10 07:22:41;;;;;;;50.05;23.85;;;7.40;94.90;;;;;;5021451;28;20053;-73
2021/03/10 07:25:11;;;;;;;49.50;23.60;;;7.50;94.40;;;;;;5020187;28;20065;-73
2021/03/10 07:28:10;;;;;;;55.63;24.20;;;7.60;94.60;;;;;;5026013;28;20072;-73
2021/03/10 07:30:46;;;;;;;54.35;24.45;;;7.90;93.80;;;;;;5034243;28;20064;-72
2021/03/10 07:33:14;;;;;;;48.63;23.60;;;7.70;93.20;;;;;;5028996;28;20083;-73
2021/03/10 07:35:57;;;;;;;50.65;22.27;;;7.50;93.40;;;;;;5019441;28;20150;-72
2021/03/10 07:38:44;;;;;;;52.75;23.63;;;7.50;93.60;;;;;;5027761;28;20050;-72
2021/03/10 07:41:15;;;;;;;54.15;22.45;;;7.60;93.60;;;;;;5025241;28;20481;-72
2021/03/10 07:43:44;;;;;;;49.30;21.35;;;7.70;93.30;;;;;;5016110;28;20074;-73
2021/03/10 07:46:22;;;;;;;45.03;22.75;;;7.80;92.80;;;;;;5022382;28;20112;-73
2021/03/10 07:48:49;;;;;;;44.38;21.40;;;7.70;92.50;;;;;;5022342;28;20078;-72
2021/03/10 07:51:27;;;;;;;47.47;21.52;;;7.90;92.60;;;;;;5021687;28;20550;-73
2021/03/10 07:53:54;;;;;;;45.58;21.70;;;7.90;91.70;;;;;;5043571;28;20050;-73
2021/03/10 07:56:29;;;;;;;48.65;21.70;;;7.90;91.40;;;;;;5025800;28;20053;-73
2021/03/10 07:59:19;;;;;;;50.10;22.88;;;8.00;91.70;;;;;;5018622;28;20132;-73
2021/03/10 08:01:47;;;;;;;43.00;20.85;;;8.40;91.30;;;;;;5019327;28;20485;-76
2021/03/10 08:04:16;;;;;;;45.03;22.35;;;8.40;90.00;;;;;;5027601;28;20058;-73
2021/03/10 08:06:44;;;;;;;46.55;22.08;;;8.20;90.40;;;;;;5017611;28;20764;-74
2021/03/10 08:09:11;;;;;;;41.58;20.42;;;8.80;88.60;;;;;;5029982;28;20041;-74
2021/03/10 08:11:43;;;;;;;47.28;21.70;;;8.70;86.80;;;;;;5023481;28;20080;-74
2021/03/10 08:14:15;;;;;;;45.20;21.35;;;8.60;87.40;;;;;;5027802;28;20099;-73
2021/03/10 08:16:49;;;;;;;46.63;21.88;;;8.80;86.10;;;;;;5025542;28;20096;-74
2021/03/10 08:19:20;;;;;;;47.85;22.38;;;9.00;85.10;;;;;;5024979;28;20129;-72
2021/03/10 08:21:53;;;;;;;52.17;24.48;;;9.00;85.80;;;;;;5019371;28;20541;-74
2021/03/10 08:24:21;;;;;;;49.05;22.90;;;8.80;87.30;;;;;;5024214;28;20460;-73
2021/03/10 08:26:57;;;;;;;46.88;24.05;;;8.90;86.80;;;;;;5023388;28;20115;-73
2021/03/10 08:29:23;;;;;;;49.97;23.30;;;9.00;87.30;;;;;;5026433;28;20374;-72
2021/03/10 08:31:57;;;;;;;45.13;22.50;;;8.80;86.10;;;;;;5024220;28;20106;-74
2021/03/10 08:34:36;;;;;;;49.40;23.25;;;8.90;85.60;;;;;;5019170;28;20059;-74
2021/03/10 08:37:11;;;;;;;45.15;22.98;;;9.00;85.30;;;;;;5024131;28;20104;-73
2021/03/10 08:39:45;;;;;;;46.72;22.52;;;9.10;84.70;;;;;;5025373;28;20119;-73
2021/03/10 08:42:21;;;;;;;45.00;22.88;;;9.20;84.80;;;;;;5020331;28;20064;-74
2021/03/10 08:44:48;;;;;;;48.60;22.98;;;9.20;84.70;;;;;;5025122;28;20075;-74
2021/03/10 08:47:19;;;;;;;48.60;22.60;;;9.10;84.30;;;;;;5026786;28;20112;-74
2021/03/10 08:49:57;;;;;;;44.40;21.67;;;9.30;82.70;;;;;;5026892;28;20050;-74
2021/03/10 08:52:26;;;;;;;45.05;21.80;;;9.80;81.40;;;;;;5023658;28;20104;-73
2021/03/10 08:55:00;;;;;;;50.45;24.00;;;10.00;77.70;;;;;;5022717;28;20449;-73
2021/03/10 08:57:29;;;;;;;52.42;24.35;;;9.60;80.40;;;;;;5017222;28;20049;-73
2021/03/10 08:59:56;;;;;;;45.50;21.75;;;9.40;80.70;;;;;;5023300;28;20049;-73
2021/03/10 09:02:34;;;;;;;47.78;22.70;;;9.10;81.00;;;;;;5019509;28;20473;-73
2021/03/10 09:05:03;;;;;;;43.58;21.63;;;9.00;82.00;;;;;;5025554;28;20068;-72
2021/03/10 09:07:30;;;;;;;45.92;22.55;;;9.20;81.90;;;;;;5016105;28;20046;-74
2021/03/10 09:09:58;;;;;;;51.55;24.38;;;8.90;82.60;;;;;;5016875;28;20096;-73
2021/03/10 09:12:27;;;;;;;47.72;22.05;;;9.20;82.60;;;;;;5026532;28;20129;-73
2021/03/10 09:14:54;;;;;;;46.65;22.95;;;9.40;81.00;;;;;;5021615;28;20096;-74
2021/03/10 09:17:36;;;;;;;42.33;21.83;;;9.50;80.40;;;;;;5025057;28;20077;-74
2021/03/10 09:20:25;;;;;;;35.60;18.05;;;9.50;79.40;;;;;;5026819;28;20042;-73
2021/03/10 09:22:54;;;;;;;37.47;20.25;;;9.40;80.20;;;;;;5029486;28;20041;-74
2021/03/10 09:25:23;;;;;;;43.65;20.58;;;9.40;81.00;;;;;;5023895;28;20442;-72
2021/03/10 09:28:06;;;;;;;41.25;19.85;;;9.50;80.60;;;;;;5025701;28;20058;-74
2021/03/10 09:30:34;;;;;;;45.78;21.23;;;9.30;80.40;;;;;;5023135;28;20120;-73
2021/03/10 09:33:02;;;;;;;35.15;18.98;;;9.60;80.40;;;;;;5025696;28;20053;-73
2021/03/10 09:35:32;;;;;;;36.67;19.25;;;9.40;77.30;;;;;;5014210;28;20737;-74
2021/03/10 09:38:06;;;;;;;40.85;19.80;;;9.50;77.20;;;;;;5025241;28;20052;-73
2021/03/10 09:40:46;;;;;;;41.58;20.02;;;9.90;75.80;;;;;;5023223;28;20073;-74
2021/03/10 09:43:21;;;;;;;43.65;19.58;;;9.70;76.00;;;;;;5026283;28;20053;-74
2021/03/10 09:45:49;;;;;;;43.63;20.27;;;10.00;75.00;;;;;;5022600;28;20080;-73
2021/03/10 09:48:37;;;;;;;38.60;20.25;;;10.20;74.10;;;;;;5020669;28;20104;-73
2021/03/10 09:51:04;;;;;;;40.55;19.98;;;10.30;73.50;;;;;;5017994;28;20053;-73
2021/03/10 09:53:31;;;;;;;38.83;19.13;;;10.50;73.20;;;;;;5037104;28;20049;-74
2021/03/10 09:56:09;;;;;;;39.17;19.10;;;10.50;73.60;;;;;;5035110;28;20175;-72
2021/03/10 09:58:54;;;;;;;35.00;18.95;;;10.70;72.70;;;;;;5035774;28;20200;-72
2021/03/10 10:01:25;;;;;;;41.20;19.75;;;10.60;71.90;;;;;;5034170;28;20057;-73
2021/03/10 10:03:52;;;;;;;42.13;19.88;;;10.50;72.00;;;;;;5038419;28;20049;-73
2021/03/10 10:06:20;;;;;;;33.95;17.85;;;10.30;72.00;;;;;;5040248;28;21344;-73
2021/03/10 10:08:48;;;;;;;36.17;18.58;;;10.30;71.60;;;;;;5035904;28;20053;-72
2021/03/10 10:11:15;;;;;;;37.28;17.73;;;10.70;70.00;;;;;;5039015;28;20701;-74
2021/03/10 10:13:45;;;;;;;40.55;18.92;;;10.50;68.70;;;;;;5037274;28;20449;-73
2021/03/10 10:16:11;;;;;;;33.95;15.07;;;10.30;69.00;;;;;;5033652;28;20104;-73
2021/03/10 10:18:45;;;;;;;40.20;19.15;;;10.40;68.40;;;;;;5035815;28;20041;-73
2021/03/10 10:21:12;;;;;;;36.85;16.58;;;10.10;70.00;;;;;;5037421;28;20057;-78
2021/03/10 10:23:40;;;;;;;34.53;15.88;;;10.20;69.00;;;;;;5034995;28;20068;-72
2021/03/10 10:26:06;;;;;;;34.45;16.25;;;10.30;68.50;;;;;;5024448;28;20049;-72
2021/03/10 10:28:33;;;;;;;36.03;16.60;;;10.50;66.80;;;;;;5020254;28;20049;-72
2021/03/10 10:30:59;;;;;;;30.02;14.25;;;10.50;67.60;;;;;;5022377;28;20125;-73
2021/03/10 10:33:30;;;;;;;29.25;14.48;;;10.40;64.80;;;;;;5021402;28;20057;-72
2021/03/10 10:35:57;;;;;;;33.08;15.75;;;10.40;65.10;;;;;;5021153;28;20753;-70
2021/03/10 10:38:23;;;;;;;32.35;15.75;;;10.70;64.70;;;;;;5018708;28;20473;-70
2021/03/10 10:40:49;;;;;;;34.60;17.23;;;11.00;64.00;;;;;;5022891;28;20063;-71
2021/03/10 10:43:16;;;;;;;34.42;15.52;;;11.50;63.50;;;;;;5019727;28;20428;-70
2021/03/10 10:45:44;;;;;;;30.17;13.73;;;11.30;62.10;;;;;;5026363;28;20048;-71
2021/03/10 10:48:10;;;;;;;31.15;14.60;;;11.60;61.00;;;;;;5017669;28;20053;-69
2021/03/10 10:50:36;;;;;;;29.67;15.48;;;11.20;60.10;;;;;;5019648;28;20082;-71
2021/03/10 10:53:04;;;;;;;29.60;14.35;;;11.60;60.90;;;;;;5015074;28;20060;-70
2021/03/10 10:55:31;;;;;;;31.42;14.80;;;11.30;60.30;;;;;;5017054;28;20528;-69
2021/03/10 10:57:59;;;;;;;27.88;13.90;;;11.40;60.80;;;;;;5010061;28;20065;-69
2021/03/10 11:00:27;;;;;;;26.92;14.00;;;11.70;61.10;;;;;;5012751;28;20057;-69
2021/03/10 11:02:53;;;;;;;28.33;14.40;;;12.00;59.40;;;;;;5012880;28;20413;-70
2021/03/10 11:05:21;;;;;;;28.55;14.60;;;11.40;59.80;;;;;;5016363;28;20050;-70
2021/03/10 11:07:47;;;;;;;26.63;13.07;;;11.20;60.70;;;;;;5015125;28;21709;-71
2021/03/10 11:10:14;;;;;;;27.75;14.32;;;11.00;61.30;;;;;;5024604;28;20056;-70
2021/03/10 11:12:40;;;;;;;24.00;13.68;;;11.00;61.50;;;;;;5018269;28;20139;-71
2021/03/10 11:15:08;;;;;;;23.50;11.63;;;11.20;60.90;;;;;;5020155;28;20064;-69
2021/03/10 11:17:35;;;;;;;25.85;12.18;;;11.40;58.50;;;;;;5011268;28;20099;-71
2021/03/10 11:20:06;;;;;;;23.52;11.65;;;11.70;58.10;;;;;;5023638;28;20556;-71
2021/03/10 11:22:33;;;;;;;20.73;9.75;;;12.40;57.30;;;;;;5020423;28;20159;-71
2021/03/10 11:25:00;;;;;;;19.42;10.05;;;12.40;56.10;;;;;;5021949;28;20414;-70
2021/03/10 11:27:26;;;;;;;19.42;9.52;;;12.40;55.20;;;;;;5018643;28;20108;-72
2021/03/10 11:29:52;;;;;;;16.25;8.20;;;12.30;54.60;;;;;;5022265;28;20179;-69
2021/03/10 11:32:19;;;;;;;13.70;7.55;;;12.20;53.00;;;;;;5017200;28;20053;-70
2021/03/10 11:34:45;;;;;;;12.27;6.38;;;12.10;52.70;;;;;;5022477;28;20060;-69
2021/03/10 11:37:15;;;;;;;14.65;7.65;;;12.50;52.70;;;;;;5017946;28;20064;-69
2021/03/10 11:39:41;;;;;;;14.65;7.47;;;12.60;51.20;;;;;;5017897;28;20059;-70
2021/03/10 11:42:08;;;;;;;16.45;8.15;;;12.20;51.60;;;;;;5021876;28;20751;-70
2021/03/10 11:44:35;;;;;;;14.95;7.28;;;12.60;51.40;;;;;;5021858;28;20559;-71
2021/03/10 11:47:02;;;;;;;16.80;7.22;;;12.90;50.90;;;;;;5018282;28;20049;-68
2021/03/10 11:49:28;;;;;;;14.68;7.75;;;12.40;51.50;;;;;;5017624;28;20053;-69
2021/03/10 11:51:55;;;;;;;13.82;7.75;;;12.00;51.90;;;;;;5018300;28;20067;-68
2021/03/10 11:54:23;;;;;;;17.25;8.15;;;11.80;52.60;;;;;;5019939;28;20081;-72
2021/03/10 11:56:50;;;;;;;18.05;7.95;;;11.70;52.80;;;;;;4997320;28;642737;-67
2021/03/10 11:59:16;;;;;;;16.92;7.97;;;11.70;53.70;;;;;;5022253;28;20062;-71
2021/03/10 12:01:43;;;;;;;14.55;7.80;;;11.70;53.10;;;;;;5016221;28;20059;-70
2021/03/10 12:04:10;;;;;;;17.17;9.02;;;11.50;53.40;;;;;;5022598;28;20046;-81
2021/03/10 12:06:36;;;;;;;15.98;8.95;;;11.40;53.60;;;;;;5025365;28;20471;-77
2021/03/10 12:09:04;;;;;;;19.23;9.25;;;11.80;53.70;;;;;;5022842;28;20049;-76
2021/03/10 12:11:31;;;;;;;17.10;9.02;;;11.50;53.40;;;;;;5020620;28;20053;-76
2021/03/10 12:14:13;;;;;;;23.00;10.85;;;11.40;53.60;;;;;;5022948;28;20063;-76
2021/03/10 12:16:40;;;;;;;20.40;10.57;;;11.30;54.90;;;;;;5021188;28;20065;-77
2021/03/10 12:19:07;;;;;;;22.05;10.18;;;11.10;54.70;;;;;;5022651;28;20492;-77
2021/03/10 12:21:34;;;;;;;20.95;10.07;;;11.10;54.60;;;;;;5022778;28;20057;-76
2021/03/10 12:24:00;;;;;;;22.45;10.43;;;11.10;54.90;;;;;;5023825;28;20045;-75
2021/03/10 12:26:27;;;;;;;21.35;9.75;;;11.30;54.70;;;;;;5023317;28;20488;-77
2021/03/10 12:28:53;;;;;;;22.33;10.32;;;11.40;54.10;;;;;;5021714;28;20057;-76
2021/03/10 12:31:19;;;;;;;21.98;10.65;;;11.30;54.20;;;;;;5021544;28;20060;-76
2021/03/10 12:33:46;;;;;;;20.63;10.43;;;11.20;54.30;;;;;;5020795;28;20106;-78
2021/03/10 12:36:13;;;;;;;31.92;14.43;;;11.20;54.90;;;;;;5022814;28;20092;-76
2021/03/10 12:38:40;;;;;;;21.42;11.85;;;11.20;54.70;;;;;;5034906;28;20053;-77
2021/03/10 12:41:06;;;;;;;24.25;12.00;;;11.10;55.20;;;;;;5017163;28;20050;-77
2021/03/10 12:43:32;;;;;;;25.83;11.70;;;11.30;55.20;;;;;;5018334;28;20053;-76
2021/03/10 12:45:59;;;;;;;24.33;11.38;;;11.50;54.40;;;;;;5020469;28;20053;-75
2021/03/10 12:48:26;;;;;;;23.50;10.77;;;11.70;54.80;;;;;;5021176;28;20084;-75